Disclaimer

Please do not use the information listed here in-flight or in-navigation, as they are not provided to us by the airports but are provided by volunteers, so they might be outdated.

Search


Regions


Airport information page

Radio informations:
Tower (TWR) - 118.1 MHz
INFO - 128.1 MHz
Approach (APP) - 119.7 MHz

Airport informations:
Latitude: 12° 08' 01.28" N
Longitude: 015° 02' 02.47" E
Elevation: 968 feet - 295 meters
Operating hours: 24 hour operations
Operating agency: Military-civil joint use airport
Timezone: UTC+1
Fuel: Jet A1, without icing nhibitor.

Runway information:
05/23 - 9186 x 148 feet< - >2800 x 45 meters

Recent METARs:
FTTJ 130300Z 36006KT CAVOK 19/M02 Q1014 NOSIG
FTTJ 130300Z 36006KT CAVOK 19/M02 Q1014 NOSIG
FTTJ 130400Z 01005KT CAVOK 17/M01 Q1015 NOSIG

Airport on the map: